To NAV CANADA Home Page Login to a new session Search on AWWS site Feedback and Comments Disclaimer Vers la page française équivalente Tips FAQ What's new on the site To the Forecasts and Observations / NOTAM section To "File a Flight Plan" website Publications and other links Update of the User's profile FIC Telephone Numbers My Weather Data Folder Route Weather Data Regional Weather Data Local Weather Data To the Forecasts and Observations / NOTAM section
Request Generated 01/17/2017 at 04:53:54 UTC . Weather information available at that time is displayed.

METAR/TAF

ST. JOHN'S/ST. JOHN'S INTL/NL    

METAR CYYT 170400Z 24006KT 15SM FEW025 BKN100 M15/M19 A3008 RMK
SC2AS4 CLD HGT ESTD SLP198=
METAR CYYT 170300Z 24008KT 15SM FEW025 SCT100 M14/M17 A3009 RMK
SC1AS2 CLD HGT ESTD SLP204=
METAR CYYT 170200Z 24007KT 15SM FEW025 M15/M18 A3011 RMK SC1 CLD HGT
ESTD SLP210=

TAF CYYT 162338Z 1700/1724 26007KT P6SM FEW020 TEMPO 1700/1701 BKN020
FM170400 20012KT P6SM SCT020 BKN100
FM170800 18015G25KT 3SM -SN BKN020 OVC080
FM171300 19018G28KT 1SM -SHSN OVC008 PROB40 1713/1717 1/2SM SHSN
BLSN VV004
FM171700 27008KT 3SM -SHSN OVC010 PROB30 1717/1720 1SM -SHSN
OVC008
FM172000 30012KT P6SM BKN020
RMK NXT FCST BY 170600Z=
Your time UTC time
Weather data provided by Environment Canada and NAV CANADA